createdAt,value
2018-07-26T00:01:33.627Z,5.77
2018-07-26T00:04:01.901Z,5.50
2018-07-26T00:06:30.166Z,5.27
2018-07-26T00:08:58.421Z,6.20
2018-07-26T00:11:26.648Z,5.33
2018-07-26T00:13:55.005Z,5.70
2018-07-26T00:16:23.229Z,5.83
2018-07-26T00:18:51.490Z,6.30
2018-07-26T00:21:19.429Z,5.77
2018-07-26T00:23:47.720Z,6.47
2018-07-26T00:26:15.946Z,6.40
2018-07-26T00:28:44.671Z,6.47
2018-07-26T00:31:12.886Z,6.47
2018-07-26T00:33:42.053Z,6.67
2018-07-26T00:36:10.257Z,6.17
2018-07-26T00:38:38.495Z,6.70
2018-07-26T00:41:06.707Z,7.00
2018-07-26T00:43:34.916Z,6.73
2018-07-26T00:46:03.122Z,7.10
2018-07-26T00:48:31.356Z,6.50
2018-07-26T00:50:59.573Z,7.37
2018-07-26T00:53:27.855Z,8.07
2018-07-26T00:55:56.225Z,7.80
2018-07-26T00:58:24.440Z,7.40
2018-07-26T01:00:52.617Z,8.73
2018-07-26T01:06:21.155Z,7.43
2018-07-26T01:08:49.364Z,8.57
2018-07-26T01:11:17.580Z,9.35
2018-07-26T01:13:45.945Z,8.60
2018-07-26T01:16:14.159Z,8.37
2018-07-26T01:18:42.349Z,9.43
2018-07-26T01:21:10.546Z,8.67
2018-07-26T01:23:38.935Z,9.13
2018-07-26T01:26:07.135Z,8.57
2018-07-26T01:28:35.318Z,9.70
2018-07-26T01:31:03.604Z,8.73
2018-07-26T01:33:31.836Z,8.60
2018-07-26T01:36:00.074Z,8.83
2018-07-26T01:38:28.274Z,9.03
2018-07-26T01:40:56.673Z,8.60
2018-07-26T01:43:48.163Z,9.30
2018-07-26T01:46:16.860Z,9.10
2018-07-26T01:48:45.082Z,7.93
2018-07-26T01:51:13.822Z,9.10
2018-07-26T01:53:42.566Z,9.20
2018-07-26T01:58:45.556Z,9.27
2018-07-26T02:01:14.122Z,9.70
2018-07-26T02:03:42.478Z,9.50
2018-07-26T02:06:10.858Z,8.90
2018-07-26T02:08:39.080Z,9.60
2018-07-26T02:11:07.147Z,9.67
2018-07-26T02:13:35.353Z,8.77
2018-07-26T02:16:03.553Z,9.97
2018-07-26T02:18:31.767Z,9.70
2018-07-26T02:20:59.991Z,9.07
2018-07-26T02:23:28.185Z,10.30
2018-07-26T02:25:56.430Z,9.90
2018-07-26T02:28:24.629Z,9.93
2018-07-26T02:30:52.870Z,10.23
2018-07-26T02:33:21.080Z,10.27
2018-07-26T02:35:49.363Z,9.90
2018-07-26T02:38:17.576Z,9.47
2018-07-26T02:40:45.853Z,9.53
2018-07-26T02:43:14.088Z,10.57
2018-07-26T02:45:42.573Z,9.90
2018-07-26T02:48:10.782Z,10.43
2018-07-26T02:50:39.055Z,10.70
2018-07-26T02:53:07.351Z,13.37
2018-07-26T02:55:35.743Z,14.57
2018-07-26T02:58:04.056Z,14.63
2018-07-26T03:00:32.260Z,14.57
2018-07-26T03:03:00.466Z,15.50
2018-07-26T03:05:28.710Z,15.73
2018-07-26T03:07:56.886Z,15.27
2018-07-26T03:10:24.894Z,14.87
2018-07-26T03:12:53.091Z,15.17
2018-07-26T03:15:21.407Z,15.57
2018-07-26T03:17:49.588Z,14.43
2018-07-26T03:20:17.783Z,14.50
2018-07-26T03:22:46.014Z,15.40
2018-07-26T03:25:14.239Z,15.30
2018-07-26T03:27:42.513Z,14.00
2018-07-26T03:30:10.735Z,14.07
2018-07-26T03:32:38.952Z,14.17
2018-07-26T03:35:07.969Z,13.65
2018-07-26T03:37:36.215Z,13.83
2018-07-26T03:40:05.246Z,14.83
2018-07-26T03:42:33.599Z,15.07
2018-07-26T03:45:01.885Z,15.10
2018-07-26T03:47:30.138Z,14.97
2018-07-26T03:49:58.327Z,15.60
2018-07-26T03:52:26.757Z,15.57
2018-07-26T03:54:54.984Z,14.97
2018-07-26T03:57:23.200Z,14.93
2018-07-26T03:59:51.432Z,14.90
2018-07-26T04:02:19.654Z,13.67
2018-07-26T04:04:50.015Z,14.17
2018-07-26T04:07:18.220Z,13.77
2018-07-26T04:09:46.418Z,14.33
2018-07-26T04:12:14.584Z,14.20
2018-07-26T04:14:42.805Z,15.23
2018-07-26T04:17:10.989Z,15.63
2018-07-26T04:19:39.250Z,14.00
2018-07-26T04:22:07.448Z,14.10
2018-07-26T04:24:35.721Z,15.33
2018-07-26T04:27:03.897Z,14.80
2018-07-26T04:29:32.066Z,14.40
2018-07-26T04:32:00.416Z,15.20
2018-07-26T04:34:28.631Z,13.80
2018-07-26T04:36:56.819Z,15.57
2018-07-26T04:39:25.283Z,15.27
2018-07-26T04:41:53.512Z,16.00
2018-07-26T04:44:21.921Z,15.07
2018-07-26T04:46:50.114Z,15.50
2018-07-26T04:49:18.306Z,15.97
2018-07-26T04:51:46.487Z,15.77
2018-07-26T04:54:14.806Z,16.60
2018-07-26T04:56:42.951Z,16.53
2018-07-26T04:59:11.201Z,16.47
2018-07-26T05:01:39.394Z,16.95
2018-07-26T05:04:07.610Z,16.57
2018-07-26T05:06:35.799Z,17.00
2018-07-26T05:09:06.087Z,17.20
2018-07-26T05:11:34.317Z,16.97
2018-07-26T05:14:02.985Z,17.20
2018-07-26T05:16:31.257Z,17.77
2018-07-26T05:18:59.506Z,16.90
2018-07-26T05:21:27.669Z,18.70
2018-07-26T05:23:55.977Z,17.50
2018-07-26T05:26:24.142Z,17.17
2018-07-26T05:28:52.324Z,17.90
2018-07-26T05:31:20.544Z,17.40
2018-07-26T05:33:48.817Z,18.73
2018-07-26T05:36:17.027Z,18.50
2018-07-26T05:38:45.228Z,19.07
2018-07-26T05:41:13.425Z,17.00
2018-07-26T05:43:41.488Z,17.57
2018-07-26T05:46:09.672Z,19.33
2018-07-26T05:48:37.870Z,17.70
2018-07-26T05:51:06.112Z,18.50
2018-07-26T05:53:34.300Z,18.20
2018-07-26T05:56:02.532Z,17.80
2018-07-26T05:58:30.766Z,18.93
2018-07-26T06:00:59.003Z,17.90
2018-07-26T06:03:27.232Z,18.73
2018-07-26T06:05:55.687Z,17.73
2018-07-26T06:08:23.872Z,18.30
2018-07-26T06:10:52.030Z,18.77
2018-07-26T06:13:20.258Z,17.77
2018-07-26T06:15:48.507Z,16.53
2018-07-26T06:18:16.692Z,16.43
2018-07-26T06:20:44.966Z,17.70
2018-07-26T06:23:13.217Z,17.23
2018-07-26T06:25:41.632Z,18.20
2018-07-26T06:28:09.913Z,16.63
2018-07-26T06:30:38.079Z,16.97
2018-07-26T06:33:06.326Z,16.23
2018-07-26T06:35:34.700Z,15.00
2018-07-26T06:38:02.984Z,15.33
2018-07-26T06:40:31.260Z,16.30
2018-07-26T06:42:59.462Z,15.73
2018-07-26T06:45:27.829Z,15.87
2018-07-26T06:47:56.003Z,15.50
2018-07-26T06:50:24.261Z,15.23
2018-07-26T06:52:53.145Z,15.43
2018-07-26T06:55:21.646Z,15.97
2018-07-26T06:57:49.887Z,14.70
2018-07-26T07:00:18.086Z,15.57
2018-07-26T07:02:46.362Z,14.80
2018-07-26T07:05:15.687Z,15.25
2018-07-26T07:07:43.912Z,14.90
2018-07-26T07:10:12.294Z,14.90
2018-07-26T07:12:40.522Z,13.57
2018-07-26T07:15:08.866Z,14.97
2018-07-26T07:17:37.121Z,14.20
2018-07-26T07:20:06.190Z,14.27
2018-07-26T07:22:34.495Z,13.80
2018-07-26T07:25:02.887Z,15.47
2018-07-26T07:27:31.136Z,14.07
2018-07-26T07:29:59.329Z,13.50
2018-07-26T07:32:27.553Z,13.73
2018-07-26T07:34:55.819Z,15.13
2018-07-26T07:37:24.041Z,12.73
2018-07-26T07:39:52.292Z,13.80
2018-07-26T07:42:20.614Z,14.43
2018-07-26T07:44:48.941Z,14.03
2018-07-26T07:47:17.244Z,13.33
2018-07-26T07:49:45.483Z,13.60
2018-07-26T07:52:13.724Z,11.90
2018-07-26T07:54:43.039Z,12.03
2018-07-26T07:57:11.290Z,12.83
2018-07-26T07:59:39.535Z,12.13
2018-07-26T08:02:07.728Z,11.57
2018-07-26T08:04:36.392Z,11.03
2018-07-26T08:07:04.652Z,11.23
2018-07-26T08:09:32.869Z,12.10
2018-07-26T08:12:01.144Z,11.13
2018-07-26T08:14:29.424Z,11.60
2018-07-26T08:16:57.741Z,10.27
2018-07-26T08:19:25.936Z,10.93
2018-07-26T08:21:54.196Z,10.70
2018-07-26T08:24:23.102Z,10.23
2018-07-26T08:26:51.941Z,10.50
2018-07-26T08:29:20.371Z,10.90
2018-07-26T08:31:48.591Z,9.50
2018-07-26T08:34:16.823Z,10.27
2018-07-26T08:36:51.356Z,10.77
2018-07-26T08:39:19.551Z,10.37
2018-07-26T08:41:47.824Z,9.60
2018-07-26T08:44:16.071Z,9.03
2018-07-26T08:46:44.334Z,8.77
2018-07-26T08:49:12.610Z,10.23
2018-07-26T08:51:40.860Z,8.97
2018-07-26T08:54:09.265Z,8.90
2018-07-26T08:56:37.454Z,9.03
2018-07-26T08:59:05.821Z,9.73
2018-07-26T09:01:34.216Z,8.33
2018-07-26T09:04:02.491Z,8.20
2018-07-26T09:06:30.733Z,8.37
2018-07-26T09:08:58.992Z,8.57
2018-07-26T09:11:27.271Z,8.90
2018-07-26T09:13:55.720Z,10.10
2018-07-26T09:16:23.973Z,7.97
2018-07-26T09:18:52.285Z,6.67
2018-07-26T09:21:20.591Z,8.20
2018-07-26T09:23:48.868Z,8.00
2018-07-26T09:26:17.107Z,7.17
2018-07-26T09:28:45.392Z,5.77
2018-07-26T09:31:13.568Z,6.40
2018-07-26T09:33:41.835Z,6.70
2018-07-26T09:36:10.306Z,5.87
2018-07-26T09:38:38.910Z,5.77
2018-07-26T09:41:07.311Z,5.77
2018-07-26T09:43:35.484Z,5.40
2018-07-26T09:46:03.734Z,7.00
2018-07-26T09:48:31.935Z,6.67
2018-07-26T09:51:00.218Z,6.03
2018-07-26T09:53:28.557Z,6.73
2018-07-26T09:55:56.861Z,7.23
2018-07-26T09:58:25.182Z,6.07
2018-07-26T10:00:58.855Z,7.27
2018-07-26T10:03:27.066Z,6.87
2018-07-26T10:05:55.354Z,7.40
2018-07-26T10:08:23.623Z,6.67
2018-07-26T10:10:51.899Z,6.77
2018-07-26T10:13:20.108Z,6.30
2018-07-26T10:15:48.468Z,6.10
2018-07-26T10:18:16.723Z,6.70
2018-07-26T10:20:44.945Z,6.40
2018-07-26T10:23:13.226Z,6.10
2018-07-26T10:25:41.491Z,6.20
2018-07-26T10:28:09.722Z,5.63
2018-07-26T10:30:37.708Z,6.57
2018-07-26T10:33:06.142Z,5.53
2018-07-26T10:35:34.514Z,6.97
2018-07-26T10:38:02.738Z,6.00
2018-07-26T10:40:31.002Z,5.67
2018-07-26T10:42:59.260Z,5.90
2018-07-26T10:45:27.584Z,5.93
2018-07-26T10:47:55.840Z,6.43
2018-07-26T10:50:24.149Z,6.00
2018-07-26T10:52:52.384Z,5.50
2018-07-26T10:55:20.823Z,5.77
2018-07-26T10:57:49.026Z,5.70
2018-07-26T11:00:17.333Z,4.73
2018-07-26T11:02:45.492Z,6.40
2018-07-26T11:05:13.939Z,5.50
2018-07-26T11:07:42.170Z,5.17
2018-07-26T11:10:11.359Z,5.80
2018-07-26T11:12:39.907Z,5.50
2018-07-26T11:15:27.387Z,5.53
2018-07-26T11:17:55.584Z,5.47
2018-07-26T11:20:23.812Z,5.57
2018-07-26T11:22:52.031Z,5.10
2018-07-26T11:25:20.195Z,4.83
2018-07-26T11:27:48.439Z,5.40
2018-07-26T11:30:16.907Z,4.50
2018-07-26T11:32:45.171Z,4.50
2018-07-26T11:35:13.436Z,5.50
2018-07-26T11:37:41.931Z,5.03
2018-07-26T11:40:10.228Z,4.47
2018-07-26T11:42:38.510Z,4.40
2018-07-26T11:45:07.766Z,3.97
2018-07-26T11:47:36.332Z,4.27
2018-07-26T11:50:04.859Z,4.33
2018-07-26T11:52:33.049Z,4.13
2018-07-26T11:55:01.307Z,4.30
2018-07-26T11:57:29.576Z,4.10
2018-07-26T11:59:57.797Z,4.60
2018-07-26T12:02:26.047Z,4.17
2018-07-26T12:04:55.246Z,4.00
2018-07-26T12:07:23.478Z,4.20
2018-07-26T12:09:51.660Z,4.50
2018-07-26T12:12:19.936Z,4.40
2018-07-26T12:14:48.369Z,3.67
2018-07-26T12:17:16.695Z,4.00
2018-07-26T12:19:45.013Z,3.93
2018-07-26T12:22:13.198Z,3.80
2018-07-26T12:24:41.435Z,3.93
2018-07-26T12:27:09.713Z,3.67
2018-07-26T12:29:37.912Z,3.20
2018-07-26T12:32:05.915Z,3.80
2018-07-26T12:34:34.367Z,4.00
2018-07-26T12:37:02.623Z,3.27
2018-07-26T12:39:30.873Z,3.57
2018-07-26T12:41:59.111Z,3.50
2018-07-26T12:44:27.370Z,3.70
2018-07-26T12:46:55.711Z,3.57
2018-07-26T12:49:23.922Z,3.80
2018-07-26T12:51:52.240Z,3.60
2018-07-26T12:54:20.539Z,3.73
2018-07-26T12:56:48.781Z,3.47
2018-07-26T12:59:16.983Z,4.73
2018-07-26T13:01:45.218Z,6.10
2018-07-26T13:04:13.645Z,5.60
2018-07-26T13:06:41.898Z,4.70
2018-07-26T13:09:10.568Z,5.60
2018-07-26T13:11:38.879Z,5.35
2018-07-26T13:14:08.667Z,4.90
2018-07-26T13:16:36.889Z,5.57
2018-07-26T13:19:05.057Z,5.13
2018-07-26T13:21:33.073Z,5.47
2018-07-26T13:24:01.461Z,5.47
2018-07-26T13:26:29.713Z,6.27
2018-07-26T13:28:58.011Z,4.90
2018-07-26T13:31:26.281Z,5.10
2018-07-26T13:33:54.588Z,4.80
2018-07-26T13:36:22.821Z,4.90
2018-07-26T13:38:51.019Z,5.03
2018-07-26T13:41:18.988Z,5.20
2018-07-26T13:43:48.403Z,4.53
2018-07-26T13:46:16.668Z,4.47
2018-07-26T13:48:44.862Z,4.80
2018-07-26T13:51:13.114Z,4.50
2018-07-26T13:53:41.332Z,4.37
2018-07-26T13:56:09.567Z,4.90
2018-07-26T13:58:38.129Z,4.93
2018-07-26T14:01:06.706Z,4.23
2018-07-26T14:03:35.156Z,4.83
2018-07-26T14:06:03.471Z,4.80
2018-07-26T14:08:31.737Z,4.97
2018-07-26T14:11:00.184Z,5.57
2018-07-26T14:13:28.475Z,5.63
2018-07-26T14:15:57.108Z,5.17
2018-07-26T14:18:25.231Z,4.90
2018-07-26T14:20:53.477Z,4.77
2018-07-26T14:23:27.213Z,4.70
2018-07-26T14:25:55.525Z,4.30
2018-07-26T14:28:23.741Z,3.93
2018-07-26T14:30:52.087Z,3.90
2018-07-26T14:33:20.315Z,4.00
2018-07-26T14:35:48.693Z,4.07
2018-07-26T14:38:17.086Z,3.90
2018-07-26T14:40:45.387Z,3.70
2018-07-26T14:43:14.137Z,3.10
2018-07-26T14:46:45.508Z,2.67
2018-07-26T14:49:13.748Z,3.30
2018-07-26T14:51:41.997Z,3.30
2018-07-26T14:54:10.258Z,3.73
2018-07-26T14:56:38.501Z,4.03
2018-07-26T14:59:06.720Z,4.20
2018-07-26T15:01:34.900Z,3.90
2018-07-26T15:04:03.329Z,4.00
2018-07-26T15:06:31.496Z,4.00
2018-07-26T15:08:59.832Z,4.03
2018-07-26T15:11:28.146Z,3.83
2018-07-26T15:13:56.467Z,3.90
2018-07-26T15:16:24.674Z,3.90
2018-07-26T15:18:52.854Z,3.97
2018-07-26T15:21:21.107Z,3.43
2018-07-26T15:23:49.506Z,3.80
2018-07-26T15:26:17.703Z,3.83
2018-07-26T15:28:52.290Z,3.80
2018-07-26T15:31:20.489Z,3.53
2018-07-26T15:33:49.022Z,3.77
2018-07-26T15:36:17.298Z,3.67
2018-07-26T15:38:45.573Z,4.60
2018-07-26T15:41:13.831Z,3.37
2018-07-26T15:43:42.312Z,3.30
2018-07-26T15:46:11.448Z,3.40
2018-07-26T15:48:39.702Z,3.37
2018-07-26T15:51:07.974Z,3.30
2018-07-26T15:53:36.132Z,4.00
2018-07-26T15:56:04.395Z,3.50
2018-07-26T15:58:32.594Z,3.50
2018-07-26T16:01:00.803Z,3.73
2018-07-26T16:03:29.006Z,3.37
2018-07-26T16:05:57.255Z,3.07
2018-07-26T16:08:25.429Z,3.33
2018-07-26T16:10:53.704Z,3.40
2018-07-26T16:13:21.971Z,3.50
2018-07-26T16:15:50.211Z,3.00
2018-07-26T16:18:18.493Z,2.83
2018-07-26T16:20:46.818Z,3.13
2018-07-26T16:23:15.073Z,2.97
2018-07-26T16:25:44.373Z,2.97
2018-07-26T16:28:12.578Z,3.30
2018-07-26T16:30:40.860Z,3.57
2018-07-26T16:33:09.208Z,2.80
2018-07-26T16:35:37.548Z,3.20
2018-07-26T16:38:06.065Z,3.67
2018-07-26T16:40:34.462Z,3.83
2018-07-26T16:43:02.698Z,3.10
2018-07-26T16:45:31.001Z,3.20
2018-07-26T16:47:59.280Z,3.37
2018-07-26T16:50:27.483Z,3.00
2018-07-26T16:52:55.718Z,3.00
2018-07-26T16:55:24.292Z,2.60
2018-07-26T16:57:52.519Z,3.07
2018-07-26T17:00:20.821Z,3.10
2018-07-26T17:02:49.064Z,3.20
2018-07-26T17:05:17.365Z,3.00
2018-07-26T17:07:45.609Z,2.90
2018-07-26T17:10:13.850Z,3.50
2018-07-26T17:12:42.074Z,6.83
2018-07-26T17:15:10.821Z,4.77
2018-07-26T17:17:39.001Z,3.10
2018-07-26T17:20:08.008Z,2.87
2018-07-26T17:22:36.238Z,3.80
2018-07-26T17:25:04.436Z,3.00
2018-07-26T17:27:32.788Z,2.80
2018-07-26T17:30:01.078Z,2.70
2018-07-26T17:32:29.442Z,2.67
2018-07-26T17:34:57.744Z,2.90
2018-07-26T17:37:26.083Z,2.90
2018-07-26T17:39:54.297Z,2.67
2018-07-26T17:42:22.507Z,2.90
2018-07-26T17:44:50.777Z,2.20
2018-07-26T17:47:19.046Z,3.00
2018-07-26T17:49:47.264Z,2.20
2018-07-26T17:52:15.562Z,2.70
2018-07-26T17:54:43.884Z,2.63
2018-07-26T17:57:12.183Z,2.30
2018-07-26T17:59:40.458Z,2.30
2018-07-26T18:02:08.767Z,2.20
2018-07-26T18:04:37.260Z,2.60
2018-07-26T18:07:05.509Z,2.17
2018-07-26T18:09:33.800Z,2.23
2018-07-26T18:12:02.097Z,2.30
2018-07-26T18:14:30.496Z,2.03
2018-07-26T18:16:58.720Z,2.20
2018-07-26T18:19:26.982Z,2.13
2018-07-26T18:21:55.217Z,2.03
2018-07-26T18:24:23.631Z,2.10
2018-07-26T18:26:51.838Z,2.30
2018-07-26T18:29:20.121Z,2.20
2018-07-26T18:31:48.444Z,2.60
2018-07-26T18:34:16.713Z,2.10
2018-07-26T18:36:45.030Z,2.10
2018-07-26T18:39:13.755Z,1.90
2018-07-26T18:41:42.078Z,2.30
2018-07-26T18:44:10.473Z,2.30
2018-07-26T18:46:39.242Z,2.33
2018-07-26T18:49:08.588Z,2.00
2018-07-26T18:51:36.834Z,2.20
2018-07-26T18:54:05.301Z,2.60
2018-07-26T18:56:33.509Z,2.37
2018-07-26T18:59:01.651Z,2.63
2018-07-26T19:01:29.866Z,2.37
2018-07-26T19:03:58.275Z,2.60
2018-07-26T19:06:26.526Z,2.47
2018-07-26T19:08:54.828Z,2.30
2018-07-26T19:11:23.109Z,2.20
2018-07-26T19:13:52.202Z,1.87
2018-07-26T19:16:20.492Z,2.13
2018-07-26T19:18:48.732Z,2.50
2018-07-26T19:21:16.973Z,2.37
2018-07-26T19:23:46.372Z,2.43
2018-07-26T19:26:14.690Z,2.90
2018-07-26T19:28:42.887Z,2.73
2018-07-26T19:31:11.116Z,2.33
2018-07-26T19:33:39.375Z,2.60
2018-07-26T19:36:07.639Z,2.93
2018-07-26T19:38:35.868Z,2.60
2018-07-26T19:41:04.220Z,2.90
2018-07-26T19:43:32.483Z,2.67
2018-07-26T19:46:00.761Z,2.77
2018-07-26T19:48:29.031Z,2.70
2018-07-26T19:50:57.614Z,2.40
2018-07-26T19:53:25.853Z,2.30
2018-07-26T19:55:54.231Z,2.77
2018-07-26T19:58:23.404Z,2.50
2018-07-26T20:00:51.680Z,2.50
2018-07-26T20:03:19.968Z,2.70
2018-07-26T20:05:48.407Z,2.50
2018-07-26T20:08:16.635Z,2.50
2018-07-26T20:10:44.985Z,2.40
2018-07-26T20:13:13.178Z,2.57
2018-07-26T20:15:41.441Z,3.00
2018-07-26T20:18:09.680Z,2.80
2018-07-26T20:20:37.628Z,3.30
2018-07-26T20:23:06.097Z,3.33
2018-07-26T20:25:38.318Z,3.20
2018-07-26T20:28:06.755Z,2.73
2018-07-26T20:30:34.996Z,3.33
2018-07-26T20:33:03.263Z,3.07
2018-07-26T20:35:31.636Z,3.07
2018-07-26T20:37:59.871Z,2.60
2018-07-26T20:40:28.188Z,2.80
2018-07-26T20:42:56.421Z,2.87
2018-07-26T20:45:24.624Z,2.93
2018-07-26T20:47:53.229Z,2.60
2018-07-26T20:50:21.494Z,2.70
2018-07-26T20:52:49.787Z,2.87
2018-07-26T20:55:18.400Z,3.13
2018-07-26T20:57:46.625Z,3.07
2018-07-26T21:00:14.862Z,3.20
2018-07-26T21:02:43.710Z,2.97
2018-07-26T21:05:12.148Z,3.60
2018-07-26T21:07:40.391Z,2.77
2018-07-26T21:10:09.628Z,3.10
2018-07-26T21:12:37.941Z,2.70
2018-07-26T21:15:07.460Z,2.80
2018-07-26T21:17:35.992Z,2.70
2018-07-26T21:20:04.817Z,3.20
2018-07-26T21:22:33.044Z,3.13
2018-07-26T21:25:01.325Z,2.90
2018-07-26T21:27:29.548Z,3.20
2018-07-26T21:29:57.713Z,3.10
2018-07-26T21:32:26.010Z,2.90
2018-07-26T21:34:55.273Z,3.50
2018-07-26T21:37:23.490Z,3.17
2018-07-26T21:39:51.936Z,3.40
2018-07-26T21:42:20.125Z,3.10
2018-07-26T21:44:48.364Z,2.90
2018-07-26T21:47:16.658Z,3.03
2018-07-26T21:49:44.954Z,2.87
2018-07-26T21:52:13.132Z,3.30
2018-07-26T21:54:41.161Z,3.27
2018-07-26T21:57:09.444Z,3.23
2018-07-26T21:59:37.650Z,3.13
2018-07-26T22:02:06.327Z,3.27
2018-07-26T22:04:34.837Z,3.30
2018-07-26T22:07:03.068Z,3.57
2018-07-26T22:09:31.413Z,4.03
2018-07-26T22:11:59.643Z,3.37
2018-07-26T22:14:27.890Z,3.67
2018-07-26T22:16:56.192Z,3.60
2018-07-26T22:19:24.482Z,4.03
2018-07-26T22:21:52.772Z,3.60
2018-07-26T22:24:21.210Z,3.53
2018-07-26T22:26:49.477Z,3.47
2018-07-26T22:29:17.784Z,3.50
2018-07-26T22:31:46.020Z,3.50
2018-07-26T22:34:14.302Z,3.07
2018-07-26T22:36:42.502Z,3.23
2018-07-26T22:39:11.612Z,3.50
2018-07-26T22:41:40.076Z,3.40
2018-07-26T22:44:08.528Z,3.33
2018-07-26T22:46:36.491Z,3.20
2018-07-26T22:49:04.780Z,3.17
2018-07-26T22:51:33.160Z,3.30
2018-07-26T22:54:02.067Z,3.40
2018-07-26T22:56:30.330Z,3.00
2018-07-26T22:58:58.631Z,3.30
2018-07-26T23:01:26.909Z,3.23
2018-07-26T23:03:55.276Z,3.10
2018-07-26T23:06:23.607Z,3.10
2018-07-26T23:08:51.894Z,3.10
2018-07-26T23:11:20.115Z,3.00
2018-07-26T23:13:48.515Z,2.90
2018-07-26T23:16:16.821Z,2.80
2018-07-26T23:18:45.089Z,2.73
2018-07-26T23:21:13.370Z,2.77
2018-07-26T23:23:41.681Z,2.90
2018-07-26T23:26:09.856Z,2.73
2018-07-26T23:28:38.115Z,2.87
2018-07-26T23:31:06.523Z,2.73
2018-07-26T23:33:34.831Z,3.77
2018-07-26T23:36:03.121Z,2.70
2018-07-26T23:38:32.315Z,2.60
2018-07-26T23:41:00.863Z,2.97
2018-07-26T23:43:29.110Z,2.80
2018-07-26T23:45:57.530Z,2.70
2018-07-26T23:48:25.739Z,2.60
2018-07-26T23:50:53.946Z,2.37
2018-07-26T23:53:23.186Z,2.57
2018-07-26T23:55:51.472Z,2.57
2018-07-26T23:58:19.647Z,2.50
